Time;durP1;ratioP1;P1;durP2;ratioP2;P2;SDS_P1;SDS_P2;PMS_P1;PMS_P2;Temp;Humidity;BMP_temperature;BMP_pressure;BME280_temperature;BME280_humidity;BME280_pressure;Samples;Min_cycle;Max_cycle;Signal;HPM_P1;HPM_P2
2022/01/08 00:00:43;;;;;;;15.87;8.87;;;5.70;76.40;;;;;;5094752;28;20419;-62
2022/01/08 00:03:08;;;;;;;14.70;8.80;;;5.70;76.50;;;;;;5093870;28;20360;-62
2022/01/08 00:05:34;;;;;;;14.87;9.97;;;5.60;76.40;;;;;;5093817;28;20024;-63
2022/01/08 00:08:00;;;;;;;14.70;9.30;;;5.60;77.10;;;;;;5084501;28;20048;-63
2022/01/08 00:10:25;;;;;;;13.97;9.23;;;5.60;76.50;;;;;;5092579;28;20111;-62
2022/01/08 00:12:51;;;;;;;14.23;9.13;;;5.60;76.60;;;;;;5094482;28;20437;-63
2022/01/08 00:15:17;;;;;;;14.53;9.17;;;5.60;76.50;;;;;;5093922;28;20028;-63
2022/01/08 00:17:43;;;;;;;16.73;9.63;;;5.60;76.60;;;;;;5092909;28;20039;-63
2022/01/08 00:20:10;;;;;;;14.87;9.20;;;5.50;76.50;;;;;;5092842;28;20051;-63
2022/01/08 00:22:35;;;;;;;15.00;10.07;;;5.50;76.60;;;;;;5094370;28;20036;-63
2022/01/08 00:25:01;;;;;;;15.70;10.63;;;5.50;76.60;;;;;;5094327;28;20176;-63
2022/01/08 00:27:27;;;;;;;16.80;10.07;;;5.50;76.60;;;;;;5093677;28;20039;-63
2022/01/08 00:29:52;;;;;;;16.33;8.97;;;5.50;76.60;;;;;;5093330;28;20024;-63
2022/01/08 00:32:18;;;;;;;16.90;10.07;;;5.40;76.50;;;;;;5094916;28;20433;-62
2022/01/08 00:34:44;;;;;;;15.87;9.97;;;5.40;76.60;;;;;;5092320;28;20430;-63
2022/01/08 00:37:10;;;;;;;20.30;10.43;;;5.40;76.60;;;;;;5093807;28;20020;-63
2022/01/08 00:39:36;;;;;;;14.50;10.03;;;5.40;76.60;;;;;;5092605;28;20024;-63
2022/01/08 00:42:02;;;;;;;18.53;10.50;;;5.30;76.60;;;;;;5094418;28;20028;-63
2022/01/08 00:44:28;;;;;;;14.60;10.37;;;5.30;76.60;;;;;;5093695;28;20035;-63
2022/01/08 00:46:54;;;;;;;17.57;10.50;;;5.30;76.60;;;;;;5093971;28;20020;-62
2022/01/08 00:49:19;;;;;;;14.97;9.97;;;5.30;76.60;;;;;;5094151;28;20081;-63
2022/01/08 00:51:45;;;;;;;16.63;9.93;;;5.30;76.60;;;;;;5076328;28;20464;-62
2022/01/08 00:54:10;;;;;;;15.97;10.60;;;5.30;76.70;;;;;;5094349;28;20020;-62
2022/01/08 00:56:36;;;;;;;15.30;9.87;;;5.20;76.60;;;;;;5094128;28;20103;-62
2022/01/08 00:59:03;;;;;;;19.73;10.50;;;5.20;76.60;;;;;;5093712;28;20028;-62
2022/01/08 01:01:29;;;;;;;15.93;10.20;;;5.20;76.70;;;;;;5093084;28;20078;-62
2022/01/08 01:03:54;;;;;;;18.33;10.40;;;5.20;76.80;;;;;;5093300;28;20032;-62
2022/01/08 01:06:20;;;;;;;19.23;10.13;;;5.20;76.70;;;;;;5094173;28;20035;-62
2022/01/08 01:08:46;;;;;;;16.37;11.13;;;5.20;76.70;;;;;;5094226;28;20020;-63
2022/01/08 01:11:11;;;;;;;17.20;10.80;;;5.20;76.70;;;;;;5093203;28;20449;-63
2022/01/08 01:13:37;;;;;;;17.80;10.43;;;5.20;76.80;;;;;;5094698;28;20024;-64
2022/01/08 01:16:06;;;;;;;19.03;10.47;;;5.20;76.70;;;;;;5093530;28;20028;-63
2022/01/08 01:18:32;;;;;;;15.57;10.53;;;5.20;76.70;;;;;;5094020;28;20111;-63
2022/01/08 01:20:58;;;;;;;15.57;10.90;;;5.20;76.80;;;;;;5094119;28;20036;-63
2022/01/08 01:23:35;;;;;;;16.50;10.83;;;5.20;76.80;;;;;;5094078;28;20114;-63
2022/01/08 01:26:04;;;;;;;19.60;10.63;;;5.20;76.90;;;;;;5094884;28;20348;-63
2022/01/08 01:28:56;;;;;;;17.50;10.63;;;5.10;76.80;;;;;;5097272;28;20043;-63
2022/01/08 01:47:19;;;;;;;16.27;10.80;;;5.10;77.10;;;;;;5097796;28;20108;-63
2022/01/08 01:49:47;;;;;;;17.00;10.87;;;5.00;77.10;;;;;;5098112;28;20035;-63
2022/01/08 01:52:15;;;;;;;14.73;10.67;;;5.10;77.10;;;;;;5097685;28;20047;-63
2022/01/08 01:54:41;;;;;;;18.90;10.37;;;5.00;77.10;;;;;;5097634;28;20054;-64
2022/01/08 01:57:09;;;;;;;15.93;10.70;;;5.10;77.20;;;;;;5096189;28;20028;-63
2022/01/08 01:59:36;;;;;;;15.60;10.37;;;5.00;77.10;;;;;;5097468;28;20059;-63
2022/01/08 02:02:04;;;;;;;15.03;10.17;;;5.00;77.10;;;;;;5097740;28;20047;-63
2022/01/08 02:04:30;;;;;;;17.27;10.87;;;5.00;77.10;;;;;;5096008;28;20174;-63
2022/01/08 02:06:55;;;;;;;16.73;9.57;;;5.00;77.10;;;;;;5097259;28;20114;-63
2022/01/08 02:09:21;;;;;;;19.27;10.73;;;5.00;77.10;;;;;;5097540;28;20028;-63
2022/01/08 02:12:04;;;;;;;14.73;10.70;;;5.00;77.10;;;;;;5097323;28;20418;-63
2022/01/08 02:14:33;;;;;;;16.50;9.97;;;5.00;77.00;;;;;;5095991;28;20073;-63
2022/01/08 02:16:59;;;;;;;17.60;11.10;;;5.00;77.00;;;;;;5096857;28;20372;-63
2022/01/08 02:19:25;;;;;;;16.47;10.93;;;5.00;77.10;;;;;;5096341;28;20111;-63
2022/01/08 02:21:54;;;;;;;15.67;10.90;;;5.00;77.10;;;;;;5096189;28;20379;-63
2022/01/08 02:24:20;;;;;;;19.63;11.23;;;4.90;77.00;;;;;;5097109;28;20035;-63
2022/01/08 02:26:46;;;;;;;16.93;10.87;;;4.90;77.00;;;;;;5095365;28;20040;-63
2022/01/08 02:29:16;;;;;;;15.83;9.93;;;4.90;77.00;;;;;;5095008;28;20036;-63
2022/01/08 02:32:04;;;;;;;20.50;10.53;;;4.90;77.00;;;;;;5095818;28;20024;-63
2022/01/08 02:34:30;;;;;;;17.70;10.70;;;4.80;77.00;;;;;;5096604;28;20386;-63
2022/01/08 02:36:58;;;;;;;16.33;10.17;;;4.80;77.00;;;;;;5095355;28;20085;-63
2022/01/08 02:39:24;;;;;;;16.33;10.00;;;4.80;77.00;;;;;;5096905;28;20023;-63
2022/01/08 02:41:54;;;;;;;16.00;10.37;;;4.80;77.00;;;;;;5095637;28;20067;-63
2022/01/08 02:44:20;;;;;;;16.40;11.10;;;4.90;77.00;;;;;;5096258;28;20031;-63
2022/01/08 02:46:46;;;;;;;15.73;10.00;;;4.80;77.00;;;;;;5096347;28;20326;-63
2022/01/08 02:49:12;;;;;;;14.73;9.53;;;4.80;76.90;;;;;;5095709;28;20039;-63
2022/01/08 02:51:38;;;;;;;15.13;10.63;;;4.90;77.00;;;;;;5089585;28;20137;-63
2022/01/08 02:54:08;;;;;;;16.67;10.20;;;4.80;76.90;;;;;;5095930;28;20057;-63
2022/01/08 02:56:41;;;;;;;18.80;10.87;;;4.80;76.90;;;;;;5095593;28;20353;-63
2022/01/08 02:59:07;;;;;;;18.63;10.50;;;4.80;77.00;;;;;;5074079;28;20032;-63
2022/01/08 03:01:33;;;;;;;14.63;10.03;;;4.80;77.00;;;;;;5094885;28;20035;-63
2022/01/08 03:03:59;;;;;;;15.70;10.07;;;4.80;77.00;;;;;;5095430;28;20067;-63
2022/01/08 03:06:25;;;;;;;16.47;10.50;;;4.80;77.00;;;;;;5095716;28;20381;-63
2022/01/08 03:08:50;;;;;;;16.30;9.60;;;4.80;77.00;;;;;;5095585;28;20032;-63
2022/01/08 03:11:17;;;;;;;15.37;10.70;;;4.90;77.00;;;;;;5096021;28;20102;-63
2022/01/08 03:13:42;;;;;;;16.20;10.97;;;4.90;77.30;;;;;;5094662;28;20047;-63
2022/01/08 03:16:08;;;;;;;20.70;10.77;;;4.90;77.00;;;;;;5095861;28;20024;-63
2022/01/08 03:18:35;;;;;;;14.50;10.73;;;4.90;77.00;;;;;;5095421;28;20111;-63
2022/01/08 03:21:04;;;;;;;15.23;10.80;;;4.90;77.10;;;;;;5095917;28;20419;-63
2022/01/08 03:23:39;;;;;;;14.90;10.50;;;4.90;77.10;;;;;;5095780;28;20035;-63
2022/01/08 03:26:05;;;;;;;16.73;10.30;;;4.90;77.20;;;;;;5095015;28;20519;-63
2022/01/08 03:28:31;;;;;;;16.53;9.87;;;5.00;77.30;;;;;;5095623;28;20040;-63
2022/01/08 03:30:56;;;;;;;18.20;9.40;;;5.00;77.20;;;;;;5096218;28;20134;-63
2022/01/08 03:33:22;;;;;;;13.90;9.30;;;5.00;77.20;;;;;;5094194;28;20364;-63
2022/01/08 03:35:47;;;;;;;16.47;9.83;;;5.00;77.20;;;;;;5095210;28;20399;-63
2022/01/08 03:38:13;;;;;;;14.67;9.43;;;5.00;77.20;;;;;;5095203;28;20050;-63
2022/01/08 03:40:38;;;;;;;16.83;9.67;;;5.00;77.20;;;;;;5095162;28;20437;-63
2022/01/08 03:43:04;;;;;;;14.53;9.13;;;5.00;77.20;;;;;;5095376;28;20024;-63
2022/01/08 03:45:30;;;;;;;14.30;9.37;;;5.00;77.20;;;;;;5094991;28;20380;-63
2022/01/08 03:48:19;;;;;;;15.27;9.00;;;5.00;77.20;;;;;;5093996;28;20036;-63
2022/01/08 03:50:46;;;;;;;16.50;9.07;;;5.00;77.20;;;;;;5095618;28;20024;-63
2022/01/08 03:53:12;;;;;;;14.87;8.23;;;5.00;77.20;;;;;;5094610;28;20352;-63
2022/01/08 03:55:38;;;;;;;13.57;8.07;;;5.00;77.30;;;;;;5093640;28;20036;-63
2022/01/08 03:58:04;;;;;;;13.17;8.10;;;5.00;77.30;;;;;;5094078;28;20032;-63
2022/01/08 04:00:31;;;;;;;13.07;8.27;;;5.00;77.20;;;;;;5095088;28;20441;-63
2022/01/08 04:02:56;;;;;;;17.13;7.97;;;5.00;77.20;;;;;;5092730;28;20042;-63
2022/01/08 04:05:22;;;;;;;11.63;7.27;;;5.00;77.10;;;;;;5093672;28;20023;-63
2022/01/08 04:07:47;;;;;;;13.97;8.73;;;5.00;77.10;;;;;;5094511;28;20063;-63
2022/01/08 04:10:13;;;;;;;12.70;8.20;;;5.00;77.10;;;;;;5093385;28;20028;-63
2022/01/08 04:12:46;;;;;;;14.53;8.20;;;4.90;77.40;;;;;;5093782;28;20035;-63
2022/01/08 04:17:52;;;;;;;14.30;8.10;;;4.90;77.10;;;;;;5094414;28;20036;-63
2022/01/08 04:20:19;;;;;;;14.73;8.50;;;4.90;77.10;;;;;;5093472;28;20118;-63
2022/01/08 04:22:47;;;;;;;15.53;8.47;;;4.80;77.10;;;;;;5094664;28;20035;-63
2022/01/08 04:25:14;;;;;;;14.57;7.77;;;4.80;77.10;;;;;;5093828;28;20028;-63
2022/01/08 04:27:40;;;;;;;11.73;7.80;;;4.80;77.00;;;;;;5093440;28;20119;-63
2022/01/08 04:30:06;;;;;;;14.57;7.90;;;4.80;77.00;;;;;;5093714;28;20119;-63
2022/01/08 04:32:32;;;;;;;15.13;8.10;;;4.80;77.00;;;;;;5094711;28;20388;-63
2022/01/08 04:34:57;;;;;;;15.03;7.70;;;4.70;77.00;;;;;;5094133;28;20029;-63
2022/01/08 04:37:23;;;;;;;12.07;8.07;;;4.70;77.00;;;;;;5093740;28;20047;-63
2022/01/08 04:39:48;;;;;;;14.63;8.90;;;4.70;77.00;;;;;;5094100;28;20031;-63
2022/01/08 04:42:14;;;;;;;15.20;8.97;;;4.70;77.00;;;;;;5094482;28;20028;-63
2022/01/08 04:44:40;;;;;;;17.67;9.10;;;4.70;77.00;;;;;;5093943;28;20114;-63
2022/01/08 04:47:05;;;;;;;14.63;8.80;;;4.60;77.00;;;;;;5092842;28;20035;-63
2022/01/08 04:49:31;;;;;;;12.37;7.83;;;4.70;77.10;;;;;;5094352;28;20403;-63
2022/01/08 04:51:57;;;;;;;14.53;7.87;;;4.60;77.00;;;;;;5094300;28;20020;-63
2022/01/08 04:54:23;;;;;;;13.93;8.03;;;4.60;77.00;;;;;;5093197;28;20024;-63
2022/01/08 04:56:49;;;;;;;15.17;8.60;;;4.60;77.10;;;;;;5093813;28;20020;-63
2022/01/08 04:59:15;;;;;;;16.90;9.10;;;4.60;77.00;;;;;;5094032;28;20020;-63
2022/01/08 05:01:41;;;;;;;14.63;8.17;;;4.60;77.00;;;;;;5098095;28;20051;-63
2022/01/08 05:04:07;;;;;;;13.03;7.90;;;4.50;77.00;;;;;;5097143;28;20028;-63
2022/01/08 05:06:33;;;;;;;14.27;7.90;;;4.50;77.00;;;;;;5097942;28;20532;-63
2022/01/08 05:08:59;;;;;;;15.53;8.33;;;4.50;77.00;;;;;;5096953;28;20039;-63
2022/01/08 05:11:27;;;;;;;14.90;8.07;;;4.50;77.00;;;;;;5097220;28;20027;-63
2022/01/08 05:13:53;;;;;;;15.30;8.63;;;4.50;77.00;;;;;;5097878;28;20462;-63
2022/01/08 05:16:19;;;;;;;15.93;7.97;;;4.40;77.00;;;;;;5097097;28;20032;-63
2022/01/08 05:18:46;;;;;;;13.57;8.40;;;4.40;77.00;;;;;;5097953;28;20523;-63
2022/01/08 05:21:25;;;;;;;12.23;7.73;;;4.40;77.00;;;;;;5097241;28;20051;-63
2022/01/08 05:23:52;;;;;;;12.03;7.43;;;4.40;77.00;;;;;;5098010;28;20031;-63
2022/01/08 05:26:19;;;;;;;13.23;8.57;;;4.40;77.00;;;;;;5095794;28;20475;-63
2022/01/08 05:28:45;;;;;;;14.67;7.57;;;4.40;77.00;;;;;;5097938;28;20123;-63
2022/01/08 05:31:12;;;;;;;13.73;8.07;;;4.40;77.00;;;;;;5096301;28;20043;-63
2022/01/08 05:33:38;;;;;;;16.87;7.93;;;4.40;77.00;;;;;;5098107;28;20028;-64
2022/01/08 05:36:04;;;;;;;15.03;7.63;;;4.40;77.00;;;;;;5097622;28;20035;-63
2022/01/08 05:38:29;;;;;;;12.83;7.47;;;4.30;77.00;;;;;;5098175;28;20032;-63
2022/01/08 05:40:55;;;;;;;15.93;7.70;;;4.40;77.00;;;;;;5097238;28;20356;-63
2022/01/08 05:43:20;;;;;;;15.87;8.00;;;4.30;77.00;;;;;;5097800;28;20107;-63
2022/01/08 05:45:46;;;;;;;13.50;7.93;;;4.30;77.00;;;;;;5096550;28;20031;-63
2022/01/08 05:48:13;;;;;;;17.00;8.53;;;4.30;77.00;;;;;;5097508;28;20047;-63
2022/01/08 05:50:39;;;;;;;11.47;7.60;;;4.30;77.00;;;;;;5095811;28;20460;-63
2022/01/08 05:53:05;;;;;;;13.87;7.33;;;4.30;77.00;;;;;;5097884;28;20394;-63
2022/01/08 05:55:31;;;;;;;15.10;7.57;;;4.30;77.00;;;;;;5086951;28;20103;-63
2022/01/08 05:57:56;;;;;;;14.03;7.07;;;4.20;76.90;;;;;;5097484;28;20498;-63
2022/01/08 06:00:22;;;;;;;15.43;8.67;;;4.30;77.00;;;;;;5092045;28;20067;-63
2022/01/08 06:02:48;;;;;;;13.83;7.40;;;4.20;76.90;;;;;;5097604;28;20085;-63
2022/01/08 06:05:13;;;;;;;15.97;8.13;;;4.20;76.90;;;;;;5093157;28;20031;-63
2022/01/08 06:07:39;;;;;;;15.27;7.73;;;4.20;76.90;;;;;;5077230;28;20111;-63
2022/01/08 06:10:05;;;;;;;12.73;6.37;;;4.20;77.00;;;;;;5084312;28;20028;-63
2022/01/08 06:12:30;;;;;;;16.00;7.57;;;4.20;77.00;;;;;;5096552;28;20046;-63
2022/01/08 06:14:56;;;;;;;13.80;7.13;;;4.20;77.00;;;;;;5096805;28;20457;-63
2022/01/08 06:17:22;;;;;;;13.87;7.63;;;4.20;77.00;;;;;;5107558;28;20064;-63
2022/01/08 06:19:47;;;;;;;13.90;7.53;;;4.20;77.00;;;;;;5089559;28;20028;-63
2022/01/08 06:22:14;;;;;;;15.03;7.97;;;4.20;76.90;;;;;;5077612;28;20376;-63
2022/01/08 06:24:40;;;;;;;12.70;7.73;;;4.20;76.90;;;;;;5075962;28;20103;-63
2022/01/08 06:27:06;;;;;;;15.20;7.90;;;4.10;76.90;;;;;;5093489;28;20131;-63
2022/01/08 06:29:31;;;;;;;13.83;7.73;;;4.10;76.90;;;;;;5095395;28;20032;-63
2022/01/08 06:31:57;;;;;;;12.53;8.10;;;4.20;77.00;;;;;;5091683;28;20330;-63
2022/01/08 06:34:22;;;;;;;15.03;8.97;;;4.20;77.00;;;;;;5096997;28;20508;-63
2022/01/08 06:36:48;;;;;;;15.13;7.93;;;4.20;77.00;;;;;;5095979;28;20137;-63
2022/01/08 06:39:15;;;;;;;14.17;7.73;;;4.20;77.00;;;;;;5095270;28;20034;-63
2022/01/08 06:41:41;;;;;;;14.87;8.23;;;4.20;77.00;;;;;;5087316;28;20040;-63
2022/01/08 06:44:06;;;;;;;17.17;8.17;;;4.20;77.00;;;;;;5096477;28;20024;-63
2022/01/08 06:46:32;;;;;;;12.20;6.83;;;4.20;77.00;;;;;;5094785;28;20035;-63
2022/01/08 06:48:57;;;;;;;15.67;8.20;;;4.20;77.00;;;;;;5095175;28;20073;-63
2022/01/08 06:51:23;;;;;;;16.03;7.30;;;4.10;76.90;;;;;;5095289;28;20031;-63
2022/01/08 06:53:48;;;;;;;14.60;7.80;;;4.20;77.00;;;;;;5096674;28;20337;-64
2022/01/08 06:56:14;;;;;;;16.73;7.97;;;4.10;77.00;;;;;;5078348;28;20024;-63
2022/01/08 06:58:41;;;;;;;16.80;7.90;;;4.10;76.90;;;;;;5096364;28;20024;-64
2022/01/08 07:01:07;;;;;;;15.93;7.63;;;4.10;76.90;;;;;;5093384;28;20334;-64
2022/01/08 07:03:33;;;;;;;17.67;8.23;;;4.10;76.90;;;;;;5090570;28;20111;-64
2022/01/08 07:05:59;;;;;;;16.37;7.53;;;4.10;76.90;;;;;;5090359;28;20071;-64
2022/01/08 07:08:24;;;;;;;13.73;7.47;;;4.10;76.90;;;;;;5095636;28;20031;-64
2022/01/08 07:10:50;;;;;;;14.37;7.70;;;4.10;76.90;;;;;;5095429;28;20028;-65
2022/01/08 07:13:16;;;;;;;17.17;8.20;;;4.10;76.90;;;;;;5095246;28;20408;-64
2022/01/08 07:15:41;;;;;;;17.37;7.67;;;4.10;76.90;;;;;;5095090;28;20035;-64
2022/01/08 07:18:07;;;;;;;15.53;8.57;;;4.10;76.90;;;;;;5087665;28;20029;-65
2022/01/08 07:20:32;;;;;;;14.50;8.30;;;4.10;77.00;;;;;;5094137;28;20038;-64
2022/01/08 07:22:59;;;;;;;16.77;9.03;;;4.10;77.00;;;;;;5096128;28;20039;-64
2022/01/08 07:25:25;;;;;;;16.10;7.87;;;4.10;77.00;;;;;;5096153;28;20340;-64
2022/01/08 07:27:51;;;;;;;13.53;8.07;;;4.10;77.00;;;;;;5094406;28;20131;-64
2022/01/08 07:30:16;;;;;;;16.37;8.40;;;4.10;77.00;;;;;;5096099;28;20052;-64
2022/01/08 07:32:44;;;;;;;14.80;8.63;;;4.10;77.00;;;;;;5077498;28;20119;-64
2022/01/08 07:35:10;;;;;;;14.80;8.90;;;4.10;77.60;;;;;;5096215;28;20452;-64
2022/01/08 07:37:36;;;;;;;14.27;8.17;;;4.10;77.00;;;;;;5094131;28;20119;-64
2022/01/08 07:40:03;;;;;;;15.13;8.43;;;4.20;77.70;;;;;;5094068;28;20028;-64
2022/01/08 07:42:29;;;;;;;14.93;8.63;;;4.20;77.10;;;;;;5095198;28;20048;-64
2022/01/08 07:44:54;;;;;;;21.37;9.87;;;4.20;77.00;;;;;;5095384;28;20056;-64
2022/01/08 07:47:20;;;;;;;15.53;8.43;;;4.20;77.10;;;;;;5093204;28;20480;-64
2022/01/08 07:49:45;;;;;;;16.60;8.53;;;4.20;77.10;;;;;;5095072;28;20024;-65
2022/01/08 07:52:11;;;;;;;15.23;8.00;;;4.20;77.10;;;;;;5094278;28;20020;-64
2022/01/08 07:54:37;;;;;;;17.63;9.17;;;4.20;77.10;;;;;;5095241;28;20024;-64
2022/01/08 07:57:02;;;;;;;17.70;8.93;;;4.20;77.10;;;;;;5094926;28;20111;-64
2022/01/08 07:59:28;;;;;;;20.10;9.33;;;4.20;77.80;;;;;;5094290;28;20499;-65
2022/01/08 08:01:54;;;;;;;15.03;8.50;;;4.20;77.10;;;;;;5095464;28;20038;-64
2022/01/08 08:04:19;;;;;;;19.57;8.93;;;4.30;77.20;;;;;;5094511;28;20034;-65
2022/01/08 08:06:47;;;;;;;18.80;9.43;;;4.30;77.20;;;;;;5093478;28;20042;-65
2022/01/08 08:09:13;;;;;;;64.93;13.07;;;4.30;77.20;;;;;;5093381;28;20060;-65
2022/01/08 08:11:39;;;;;;;17.97;9.30;;;4.40;77.20;;;;;;5093380;28;20107;-65
2022/01/08 08:14:04;;;;;;;20.87;10.23;;;4.40;77.10;;;;;;5110284;28;20115;-66
2022/01/08 08:16:30;;;;;;;18.90;9.77;;;4.50;77.00;;;;;;5087292;28;20362;-66
2022/01/08 08:18:56;;;;;;;21.27;9.67;;;4.50;76.90;;;;;;5074632;28;20033;-65
2022/01/08 08:21:21;;;;;;;17.03;9.33;;;4.50;76.90;;;;;;5092051;28;20115;-65
2022/01/08 08:23:47;;;;;;;15.97;9.37;;;4.50;76.90;;;;;;5093967;28;20024;-65
2022/01/08 08:26:12;;;;;;;15.30;8.10;;;4.60;77.00;;;;;;5085249;28;20052;-65
2022/01/08 08:28:38;;;;;;;14.67;8.80;;;4.60;77.00;;;;;;5093918;28;20050;-66
2022/01/08 08:31:04;;;;;;;16.13;8.93;;;4.70;77.00;;;;;;5093760;28;20016;-66
2022/01/08 08:33:29;;;;;;;19.17;9.23;;;4.70;77.00;;;;;;5094299;28;20115;-65
2022/01/08 08:35:55;;;;;;;21.47;9.37;;;4.70;77.00;;;;;;5093964;28;20050;-65
2022/01/08 08:38:20;;;;;;;13.97;9.23;;;4.80;77.10;;;;;;5093342;28;20047;-65
2022/01/08 08:40:46;;;;;;;14.70;8.80;;;4.80;77.00;;;;;;5094089;28;20088;-65
2022/01/08 08:43:12;;;;;;;16.90;9.37;;;4.80;77.00;;;;;;5093797;28;20120;-65
2022/01/08 08:45:39;;;;;;;17.70;8.93;;;4.80;77.00;;;;;;5093564;28;20032;-65
2022/01/08 08:48:05;;;;;;;18.13;9.70;;;4.80;77.10;;;;;;5088506;28;20169;-64
2022/01/08 08:50:31;;;;;;;18.93;8.87;;;4.90;77.20;;;;;;5094064;28;20111;-65
2022/01/08 08:52:56;;;;;;;17.27;8.33;;;4.80;77.20;;;;;;5094063;28;20035;-66
2022/01/08 08:55:22;;;;;;;16.77;8.87;;;4.90;77.30;;;;;;5094234;28;20417;-65
2022/01/08 08:57:48;;;;;;;14.83;9.30;;;4.90;77.30;;;;;;5094744;28;20143;-64
2022/01/08 09:00:14;;;;;;;17.17;8.63;;;4.90;77.30;;;;;;5093913;28;20357;-68
2022/01/08 09:02:40;;;;;;;16.43;8.33;;;4.90;77.30;;;;;;5091987;28;20035;-65
2022/01/08 09:05:06;;;;;;;17.47;9.87;;;5.00;77.30;;;;;;5097602;28;20093;-64
2022/01/08 09:07:34;;;;;;;20.53;9.63;;;5.00;77.30;;;;;;5093992;28;20063;-65
2022/01/08 09:10:00;;;;;;;15.33;9.00;;;5.00;77.30;;;;;;5093874;28;20027;-64
2022/01/08 09:12:26;;;;;;;18.20;9.83;;;5.00;77.30;;;;;;5094358;28;20432;-64
2022/01/08 09:14:51;;;;;;;18.10;9.53;;;5.00;77.40;;;;;;5094291;28;20066;-64
2022/01/08 09:17:17;;;;;;;16.40;8.33;;;5.00;77.40;;;;;;5092949;28;20077;-64
2022/01/08 09:19:43;;;;;;;14.10;8.27;;;5.00;77.40;;;;;;5087572;28;20077;-64
2022/01/08 09:22:09;;;;;;;15.83;8.80;;;5.00;77.40;;;;;;5092208;28;20032;-65
2022/01/08 09:24:36;;;;;;;15.50;8.93;;;5.00;77.40;;;;;;5093470;28;20063;-65
2022/01/08 09:27:03;;;;;;;14.10;8.70;;;5.00;77.50;;;;;;5093753;28;20047;-65
2022/01/08 09:29:29;;;;;;;14.03;8.80;;;5.00;77.50;;;;;;5093804;28;20032;-65
2022/01/08 09:31:55;;;;;;;17.37;8.93;;;5.00;77.50;;;;;;5084022;28;20027;-65
2022/01/08 09:34:20;;;;;;;17.67;9.37;;;5.10;77.50;;;;;;5088736;28;20012;-66
2022/01/08 09:36:47;;;;;;;14.40;7.57;;;5.10;77.60;;;;;;5093509;28;20467;-64
2022/01/08 09:39:14;;;;;;;16.27;8.00;;;5.10;77.50;;;;;;5093917;28;20434;-64
2022/01/08 09:41:39;;;;;;;16.50;8.40;;;5.20;77.60;;;;;;5093417;28;20475;-64
2022/01/08 09:44:05;;;;;;;18.40;8.13;;;5.20;77.50;;;;;;5073141;28;20033;-64
2022/01/08 09:46:31;;;;;;;15.30;8.27;;;5.20;77.50;;;;;;5082964;28;20024;-65
2022/01/08 09:48:56;;;;;;;20.20;8.60;;;5.30;77.50;;;;;;5098113;28;20096;-64
2022/01/08 09:51:22;;;;;;;15.00;8.27;;;5.30;77.50;;;;;;5097726;28;20028;-65
2022/01/08 09:53:48;;;;;;;13.17;7.33;;;5.30;77.50;;;;;;5079057;28;20031;-64
2022/01/08 09:56:13;;;;;;;15.57;7.73;;;5.30;77.50;;;;;;5076976;28;20112;-65
2022/01/08 09:58:40;;;;;;;11.53;7.03;;;5.40;77.40;;;;;;5095481;28;20410;-64
2022/01/08 10:01:27;;;;;;;16.40;7.37;;;5.40;77.50;;;;;;5095381;28;20047;-64
2022/01/08 10:03:53;;;;;;;14.60;7.53;;;5.40;77.40;;;;;;5096095;28;20032;-64
2022/01/08 10:06:30;;;;;;;16.77;7.70;;;5.40;77.40;;;;;;5096204;28;20038;-64
2022/01/08 10:08:56;;;;;;;16.00;7.37;;;5.40;77.50;;;;;;5094143;28;20059;-65
2022/01/08 10:11:23;;;;;;;13.10;6.93;;;5.40;77.50;;;;;;5097298;28;20027;-64
2022/01/08 10:14:00;;;;;;;12.33;7.33;;;5.40;77.50;;;;;;5097413;28;20085;-64
2022/01/08 10:19:37;;;;;;;12.70;7.53;;;5.50;77.40;;;;;;5097428;28;20078;-64
2022/01/08 10:22:15;;;;;;;16.50;7.63;;;5.50;77.40;;;;;;5093602;28;20059;-64
2022/01/08 10:24:40;;;;;;;15.03;8.37;;;5.50;77.50;;;;;;5096765;28;20028;-64
2022/01/08 10:27:07;;;;;;;15.73;9.33;;;5.50;77.50;;;;;;5086186;28;20067;-64
2022/01/08 10:29:33;;;;;;;14.87;9.57;;;5.50;77.50;;;;;;5076862;28;20040;-64
2022/01/08 10:32:00;;;;;;;19.30;9.43;;;5.50;77.50;;;;;;5075583;28;20021;-64
2022/01/08 10:34:29;;;;;;;15.90;9.43;;;5.50;77.60;;;;;;5095018;28;20393;-64
2022/01/08 10:36:54;;;;;;;15.47;8.60;;;5.50;77.60;;;;;;5096714;28;20056;-64
2022/01/08 10:39:21;;;;;;;17.57;10.07;;;5.50;77.60;;;;;;5096596;28;20495;-64
2022/01/08 10:41:49;;;;;;;19.93;10.40;;;5.50;77.50;;;;;;5095529;28;20461;-64
2022/01/08 10:44:19;;;;;;;14.57;8.47;;;5.60;78.10;;;;;;5096900;28;20055;-64
2022/01/08 10:46:53;;;;;;;20.33;10.10;;;5.60;77.50;;;;;;5096039;28;20067;-64
2022/01/08 10:49:27;;;;;;;17.50;10.60;;;5.70;77.50;;;;;;5096745;28;20131;-64
2022/01/08 10:51:57;;;;;;;13.77;8.37;;;5.80;77.40;;;;;;5096001;28;20024;-64
2022/01/08 10:54:27;;;;;;;16.90;10.13;;;5.80;77.30;;;;;;5112509;28;20038;-64
2022/01/08 10:56:59;;;;;;;16.93;8.70;;;5.90;77.20;;;;;;5094922;28;20107;-64
2022/01/08 10:59:26;;;;;;;17.17;9.67;;;5.90;77.10;;;;;;5089479;28;20032;-62
2022/01/08 11:02:05;;;;;;;14.93;9.00;;;5.90;77.00;;;;;;5095178;28;20036;-63
2022/01/08 11:04:47;;;;;;;15.37;9.23;;;5.90;77.00;;;;;;5085356;28;20039;-63
2022/01/08 11:07:14;;;;;;;18.35;9.93;;;6.00;77.00;;;;;;5095352;28;20044;-63
2022/01/08 11:09:43;;;;;;;16.07;9.43;;;6.00;76.90;;;;;;5092613;28;20039;-63
2022/01/08 11:12:13;;;;;;;16.77;8.73;;;6.00;76.90;;;;;;5093563;28;20077;-63
2022/01/08 11:15:00;;;;;;;17.03;9.60;;;6.00;76.80;;;;;;5093667;28;20076;-63
2022/01/08 11:17:29;;;;;;;18.03;9.47;;;6.00;76.80;;;;;;5095446;28;20099;-63
2022/01/08 11:19:58;;;;;;;19.03;10.77;;;6.00;76.90;;;;;;5090803;28;20363;-64
2022/01/08 11:22:26;;;;;;;15.27;9.93;;;6.00;76.90;;;;;;5095341;28;20115;-63
2022/01/08 11:24:57;;;;;;;17.00;10.17;;;6.00;76.90;;;;;;5084284;28;20028;-63
2022/01/08 11:27:26;;;;;;;21.27;12.00;;;6.00;76.90;;;;;;5089842;28;20044;-63
2022/01/08 11:30:11;;;;;;;18.80;9.77;;;6.10;76.90;;;;;;5092072;28;20028;-64
2022/01/08 11:32:38;;;;;;;20.03;13.00;;;6.10;76.90;;;;;;5095541;28;20028;-64
2022/01/08 11:35:06;;;;;;;20.73;11.47;;;6.10;76.80;;;;;;5083386;28;20108;-64
2022/01/08 11:37:32;;;;;;;22.63;11.67;;;6.10;76.80;;;;;;5078836;28;20016;-64
2022/01/08 11:40:03;;;;;;;22.13;12.33;;;6.10;76.80;;;;;;5089548;28;20028;-63
2022/01/08 11:42:31;;;;;;;18.60;10.23;;;6.10;76.80;;;;;;5085006;28;20020;-64
2022/01/08 11:44:59;;;;;;;23.73;12.37;;;6.10;76.70;;;;;;5087724;28;20024;-64
2022/01/08 11:47:27;;;;;;;22.90;12.23;;;6.10;76.80;;;;;;5094480;28;20059;-64
2022/01/08 11:49:54;;;;;;;19.23;10.00;;;6.10;76.80;;;;;;5093242;28;20115;-64
2022/01/08 11:52:22;;;;;;;20.57;9.33;;;6.10;76.90;;;;;;5094648;28;20038;-64
2022/01/08 11:54:49;;;;;;;22.23;11.43;;;6.10;76.80;;;;;;5091322;28;20399;-65
2022/01/08 11:57:26;;;;;;;20.23;9.30;;;6.20;76.70;;;;;;5093866;28;20107;-63
2022/01/08 12:00:02;;;;;;;16.13;8.97;;;6.10;76.70;;;;;;5091300;28;20036;-63
2022/01/08 12:02:42;;;;;;;23.63;12.63;;;6.20;76.80;;;;;;5076487;28;20024;-63
2022/01/08 12:05:12;;;;;;;20.47;10.13;;;6.20;76.90;;;;;;5081251;28;20043;-63
2022/01/08 12:07:43;;;;;;;21.77;11.93;;;6.20;76.90;;;;;;5093538;28;20085;-63
2022/01/08 12:10:23;;;;;;;17.30;9.13;;;6.20;76.80;;;;;;5087985;28;20059;-63
2022/01/08 12:13:00;;;;;;;16.03;9.60;;;6.20;76.90;;;;;;5093734;28;20089;-63
2022/01/08 12:15:41;;;;;;;18.60;9.60;;;6.20;76.80;;;;;;5094155;28;20035;-63
2022/01/08 12:18:08;;;;;;;18.03;9.13;;;6.20;76.90;;;;;;5093023;28;20035;-63
2022/01/08 12:20:42;;;;;;;14.00;8.73;;;6.20;76.80;;;;;;5088534;28;20040;-64
2022/01/08 12:23:37;;;;;;;20.23;9.73;;;6.20;76.80;;;;;;5091014;28;20330;-64
2022/01/08 12:26:22;;;;;;;18.90;9.83;;;6.20;76.70;;;;;;5090861;28;20031;-64
2022/01/08 12:29:01;;;;;;;17.00;8.73;;;6.20;76.70;;;;;;5076693;28;20459;-64
2022/01/08 12:31:36;;;;;;;16.67;8.53;;;6.20;76.80;;;;;;5091359;28;20035;-65
2022/01/08 12:34:19;;;;;;;14.47;8.77;;;6.20;76.80;;;;;;5093473;28;20521;-63
2022/01/08 12:36:55;;;;;;;17.83;8.87;;;6.20;76.70;;;;;;5083307;28;20058;-64
2022/01/08 12:39:40;;;;;;;15.43;8.57;;;6.30;76.80;;;;;;5081053;28;20432;-66
2022/01/08 12:42:20;;;;;;;15.40;7.77;;;6.30;76.70;;;;;;5092713;28;20088;-64
2022/01/08 12:45:18;;;;;;;14.00;7.40;;;6.30;76.60;;;;;;5093895;28;20467;-64
2022/01/08 12:47:48;;;;;;;17.80;8.97;;;6.30;76.50;;;;;;5092214;28;20459;-60
2022/01/08 12:50:53;;;;;;;14.27;7.80;;;6.30;76.60;;;;;;5091948;28;20032;-61
2022/01/08 12:53:22;;;;;;;16.60;8.43;;;6.30;76.50;;;;;;5079649;28;20441;-60
2022/01/08 12:55:54;;;;;;;12.93;6.93;;;6.30;76.50;;;;;;5094421;28;20071;-60
2022/01/08 12:58:25;;;;;;;14.40;7.57;;;6.30;76.50;;;;;;5095807;28;20056;-62
2022/01/08 13:00:57;;;;;;;15.50;7.40;;;6.20;76.50;;;;;;5093232;28;20032;-61
2022/01/08 13:03:29;;;;;;;13.57;7.30;;;6.20;76.40;;;;;;5094633;28;20102;-61
2022/01/08 13:05:56;;;;;;;15.15;7.05;;;6.30;76.50;;;;;;5094242;28;20024;-61
2022/01/08 13:08:28;;;;;;;13.73;7.80;;;6.30;76.50;;;;;;5094107;28;20032;-61